sensor_id;sensor_type;location;lat;lon;timestamp;pressure;altitude;pressure_sealevel;temperature;humidity
5380;BME280;2713;42.680;23.310;2023-05-06T00:01:47;95203.44;;;13.78;72.12
5380;BME280;2713;42.680;23.310;2023-05-06T00:04:14;95201.69;;;13.92;71.69
5380;BME280;2713;42.680;23.310;2023-05-06T00:06:40;95202.88;;;13.89;71.32
5380;BME280;2713;42.680;23.310;2023-05-06T00:09:08;95211.31;;;13.85;71.57
5380;BME280;2713;42.680;23.310;2023-05-06T00:11:35;95205.59;;;13.68;72.15
5380;BME280;2713;42.680;23.310;2023-05-06T00:14:02;95200.28;;;13.89;71.52
5380;BME280;2713;42.680;23.310;2023-05-06T00:16:30;95200.66;;;13.80;71.21
5380;BME280;2713;42.680;23.310;2023-05-06T00:18:57;95191.22;;;13.92;70.94
5380;BME280;2713;42.680;23.310;2023-05-06T00:21:24;95206.03;;;13.71;71.82
5380;BME280;2713;42.680;23.310;2023-05-06T00:23:51;95196.63;;;13.84;71.67
5380;BME280;2713;42.680;23.310;2023-05-06T00:26:18;95179.44;;;13.55;71.77
5380;BME280;2713;42.680;23.310;2023-05-06T00:28:45;95197.94;;;13.60;72.17
5380;BME280;2713;42.680;23.310;2023-05-06T00:31:11;95195.53;;;13.58;71.94
5380;BME280;2713;42.680;23.310;2023-05-06T00:33:40;95197.91;;;13.53;71.92
5380;BME280;2713;42.680;23.310;2023-05-06T00:36:07;95194.53;;;13.59;72.13
5380;BME280;2713;42.680;23.310;2023-05-06T00:38:34;95192.47;;;13.48;72.14
5380;BME280;2713;42.680;23.310;2023-05-06T00:41:01;95191.44;;;13.49;72.19
5380;BME280;2713;42.680;23.310;2023-05-06T00:43:28;95193.78;;;13.31;72.26
5380;BME280;2713;42.680;23.310;2023-05-06T00:45:55;95195.63;;;13.37;72.74
5380;BME280;2713;42.680;23.310;2023-05-06T00:48:22;95196.38;;;13.65;71.63
5380;BME280;2713;42.680;23.310;2023-05-06T00:50:50;95190.78;;;13.82;70.56
5380;BME280;2713;42.680;23.310;2023-05-06T00:53:18;95189.94;;;13.68;71.36
5380;BME280;2713;42.680;23.310;2023-05-06T00:55:45;95191.97;;;13.73;71.18
5380;BME280;2713;42.680;23.310;2023-05-06T00:58:13;95166.81;;;13.65;71.26
5380;BME280;2713;42.680;23.310;2023-05-06T01:00:40;95185.16;;;13.78;70.73
5380;BME280;2713;42.680;23.310;2023-05-06T01:03:07;95187.56;;;13.73;70.97
5380;BME280;2713;42.680;23.310;2023-05-06T01:05:41;95189.16;;;13.74;70.83
5380;BME280;2713;42.680;23.310;2023-05-06T01:08:17;95186.34;;;13.69;70.91
5380;BME280;2713;42.680;23.310;2023-05-06T01:10:50;95195.16;;;13.68;70.89
5380;BME280;2713;42.680;23.310;2023-05-06T01:13:23;95184.69;;;13.61;70.61
5380;BME280;2713;42.680;23.310;2023-05-06T01:15:56;95190.31;;;13.58;70.49
5380;BME280;2713;42.680;23.310;2023-05-06T01:18:25;95185.88;;;13.52;70.82
5380;BME280;2713;42.680;23.310;2023-05-06T01:20:53;95160.84;;;13.30;71.55
5380;BME280;2713;42.680;23.310;2023-05-06T01:23:22;95181.16;;;13.35;71.82
5380;BME280;2713;42.680;23.310;2023-05-06T01:25:49;95161.09;;;13.07;72.09
5380;BME280;2713;42.680;23.310;2023-05-06T01:28:16;95176.09;;;13.33;72.36
5380;BME280;2713;42.680;23.310;2023-05-06T01:30:52;95168.09;;;13.07;73.20
5380;BME280;2713;42.680;23.310;2023-05-06T01:33:27;95178.25;;;13.23;72.20
5380;BME280;2713;42.680;23.310;2023-05-06T01:36:02;95174.50;;;13.32;71.78
5380;BME280;2713;42.680;23.310;2023-05-06T01:38:40;95179.69;;;13.26;71.94
5380;BME280;2713;42.680;23.310;2023-05-06T01:41:15;95183.06;;;13.19;72.48
5380;BME280;2713;42.680;23.310;2023-05-06T01:43:44;95180.63;;;13.11;72.78
5380;BME280;2713;42.680;23.310;2023-05-06T01:46:17;95172.16;;;13.09;72.91
5380;BME280;2713;42.680;23.310;2023-05-06T01:48:46;95179.47;;;12.93;73.27
5380;BME280;2713;42.680;23.310;2023-05-06T01:51:15;95176.25;;;12.91;73.44
5380;BME280;2713;42.680;23.310;2023-05-06T01:53:43;95179.03;;;12.89;73.73
5380;BME280;2713;42.680;23.310;2023-05-06T01:56:10;95178.84;;;12.91;73.47
5380;BME280;2713;42.680;23.310;2023-05-06T01:58:37;95179.34;;;13.07;72.67
5380;BME280;2713;42.680;23.310;2023-05-06T02:01:04;95182.72;;;13.01;73.04
5380;BME280;2713;42.680;23.310;2023-05-06T02:03:32;95183.28;;;13.18;72.30
5380;BME280;2713;42.680;23.310;2023-05-06T02:05:58;95187.66;;;13.11;72.24
5380;BME280;2713;42.680;23.310;2023-05-06T02:08:28;95176.19;;;13.12;72.30
5380;BME280;2713;42.680;23.310;2023-05-06T02:10:56;95174.69;;;13.03;72.39
5380;BME280;2713;42.680;23.310;2023-05-06T02:13:23;95167.06;;;13.01;72.22
5380;BME280;2713;42.680;23.310;2023-05-06T02:15:51;95159.97;;;12.89;72.43
5380;BME280;2713;42.680;23.310;2023-05-06T02:18:20;95173.88;;;13.02;71.97
5380;BME280;2713;42.680;23.310;2023-05-06T02:20:46;95169.03;;;12.93;72.52
5380;BME280;2713;42.680;23.310;2023-05-06T02:23:14;95171.53;;;13.07;71.85
5380;BME280;2713;42.680;23.310;2023-05-06T02:25:41;95163.75;;;12.86;72.23
5380;BME280;2713;42.680;23.310;2023-05-06T02:28:09;95176.59;;;12.88;72.23
5380;BME280;2713;42.680;23.310;2023-05-06T02:30:36;95177.84;;;12.92;72.32
5380;BME280;2713;42.680;23.310;2023-05-06T02:33:03;95168.72;;;12.81;72.37
5380;BME280;2713;42.680;23.310;2023-05-06T02:35:30;95179.72;;;12.98;71.80
5380;BME280;2713;42.680;23.310;2023-05-06T02:37:58;95175.00;;;12.87;72.13
5380;BME280;2713;42.680;23.310;2023-05-06T02:40:25;95181.13;;;12.73;72.59
5380;BME280;2713;42.680;23.310;2023-05-06T02:42:52;95177.88;;;12.70;72.57
5380;BME280;2713;42.680;23.310;2023-05-06T02:45:20;95176.13;;;12.78;72.13
5380;BME280;2713;42.680;23.310;2023-05-06T02:47:50;95188.50;;;12.69;72.60
5380;BME280;2713;42.680;23.310;2023-05-06T02:50:17;95180.91;;;12.74;72.24
5380;BME280;2713;42.680;23.310;2023-05-06T02:52:44;95173.34;;;12.79;72.15
5380;BME280;2713;42.680;23.310;2023-05-06T02:55:11;95186.28;;;12.94;71.68
5380;BME280;2713;42.680;23.310;2023-05-06T02:57:38;95194.25;;;12.86;71.42
5380;BME280;2713;42.680;23.310;2023-05-06T03:00:06;95198.53;;;12.93;71.30
5380;BME280;2713;42.680;23.310;2023-05-06T03:02:36;95189.84;;;12.86;71.72
5380;BME280;2713;42.680;23.310;2023-05-06T03:05:04;95195.50;;;12.90;71.55
5380;BME280;2713;42.680;23.310;2023-05-06T03:07:31;95198.22;;;12.82;71.70
5380;BME280;2713;42.680;23.310;2023-05-06T03:09:58;95196.56;;;12.74;71.99
5380;BME280;2713;42.680;23.310;2023-05-06T03:12:25;95193.78;;;12.76;72.08
5380;BME280;2713;42.680;23.310;2023-05-06T03:14:51;95198.91;;;12.62;72.17
5380;BME280;2713;42.680;23.310;2023-05-06T03:17:18;95199.16;;;12.46;73.04
5380;BME280;2713;42.680;23.310;2023-05-06T03:19:47;95196.66;;;12.59;72.96
5380;BME280;2713;42.680;23.310;2023-05-06T03:22:15;95201.00;;;12.74;71.99
5380;BME280;2713;42.680;23.310;2023-05-06T03:24:44;95203.84;;;12.79;71.71
5380;BME280;2713;42.680;23.310;2023-05-06T03:27:10;95206.66;;;12.77;71.79
5380;BME280;2713;42.680;23.310;2023-05-06T03:29:38;95210.94;;;12.63;71.89
5380;BME280;2713;42.680;23.310;2023-05-06T03:32:07;95210.31;;;12.61;72.52
5380;BME280;2713;42.680;23.310;2023-05-06T03:34:39;95210.19;;;12.69;72.17
5380;BME280;2713;42.680;23.310;2023-05-06T03:37:10;95185.81;;;12.56;72.47
5380;BME280;2713;42.680;23.310;2023-05-06T03:39:39;95218.44;;;12.73;72.13
5380;BME280;2713;42.680;23.310;2023-05-06T03:42:06;95216.06;;;12.78;71.89
5380;BME280;2713;42.680;23.310;2023-05-06T03:44:33;95217.81;;;12.71;72.37
5380;BME280;2713;42.680;23.310;2023-05-06T03:47:01;95220.94;;;12.88;71.25
5380;BME280;2713;42.680;23.310;2023-05-06T03:49:31;95226.59;;;12.91;71.15
5380;BME280;2713;42.680;23.310;2023-05-06T03:51:57;95219.75;;;12.84;70.85
5380;BME280;2713;42.680;23.310;2023-05-06T03:54:26;95222.66;;;12.74;71.74
5380;BME280;2713;42.680;23.310;2023-05-06T03:56:55;95225.41;;;12.66;71.85
5380;BME280;2713;42.680;23.310;2023-05-06T03:59:21;95220.84;;;12.75;72.03
5380;BME280;2713;42.680;23.310;2023-05-06T04:01:49;95223.88;;;12.78;72.06
5380;BME280;2713;42.680;23.310;2023-05-06T04:04:16;95223.88;;;12.78;72.16
5380;BME280;2713;42.680;23.310;2023-05-06T04:06:43;95235.22;;;12.92;71.70
5380;BME280;2713;42.680;23.310;2023-05-06T04:09:10;95230.66;;;12.94;72.44
5380;BME280;2713;42.680;23.310;2023-05-06T04:11:39;95237.41;;;13.09;71.60
5380;BME280;2713;42.680;23.310;2023-05-06T04:14:09;95230.31;;;13.03;71.74
5380;BME280;2713;42.680;23.310;2023-05-06T04:16:36;95234.97;;;13.08;72.22
5380;BME280;2713;42.680;23.310;2023-05-06T04:19:04;95233.47;;;13.20;71.89
5380;BME280;2713;42.680;23.310;2023-05-06T04:21:31;95234.31;;;13.27;71.56
5380;BME280;2713;42.680;23.310;2023-05-06T04:24:03;95231.56;;;13.35;71.60
5380;BME280;2713;42.680;23.310;2023-05-06T04:26:34;95234.78;;;13.37;71.56
5380;BME280;2713;42.680;23.310;2023-05-06T04:29:03;95236.22;;;13.46;71.30
5380;BME280;2713;42.680;23.310;2023-05-06T04:31:32;95232.50;;;13.62;71.29
5380;BME280;2713;42.680;23.310;2023-05-06T04:34:02;95249.00;;;13.62;70.98
5380;BME280;2713;42.680;23.310;2023-05-06T04:36:30;95234.31;;;13.61;71.50
5380;BME280;2713;42.680;23.310;2023-05-06T04:39:17;95245.72;;;13.54;71.76
5380;BME280;2713;42.680;23.310;2023-05-06T04:41:46;95237.31;;;13.58;71.84
5380;BME280;2713;42.680;23.310;2023-05-06T04:44:19;95242.41;;;13.73;71.41
5380;BME280;2713;42.680;23.310;2023-05-06T04:46:46;95246.69;;;13.87;70.87
5380;BME280;2713;42.680;23.310;2023-05-06T04:49:15;95259.28;;;13.77;70.86
5380;BME280;2713;42.680;23.310;2023-05-06T04:51:41;95250.38;;;13.99;70.37
5380;BME280;2713;42.680;23.310;2023-05-06T04:54:09;95257.28;;;14.20;70.64
5380;BME280;2713;42.680;23.310;2023-05-06T04:56:36;95253.59;;;14.82;68.70
5380;BME280;2713;42.680;23.310;2023-05-06T04:59:05;95263.88;;;15.29;66.34
5380;BME280;2713;42.680;23.310;2023-05-06T05:01:33;95229.28;;;16.73;86.59
5380;BME280;2713;42.680;23.310;2023-05-06T05:04:00;95250.03;;;18.10;80.30
5380;BME280;2713;42.680;23.310;2023-05-06T05:06:28;95270.59;;;18.80;70.73
5380;BME280;2713;42.680;23.310;2023-05-06T05:08:57;95272.44;;;18.91;62.26
5380;BME280;2713;42.680;23.310;2023-05-06T05:11:24;95277.44;;;19.22;60.04
5380;BME280;2713;42.680;23.310;2023-05-06T05:13:52;95278.38;;;19.39;54.71
5380;BME280;2713;42.680;23.310;2023-05-06T05:16:20;95286.22;;;19.04;54.04
5380;BME280;2713;42.680;23.310;2023-05-06T05:18:49;95275.72;;;18.27;55.26
5380;BME280;2713;42.680;23.310;2023-05-06T05:21:20;95279.03;;;18.04;55.96
5380;BME280;2713;42.680;23.310;2023-05-06T05:23:47;95273.91;;;17.72;56.58
5380;BME280;2713;42.680;23.310;2023-05-06T05:26:14;95279.81;;;17.43;57.68
5380;BME280;2713;42.680;23.310;2023-05-06T05:28:43;95275.22;;;17.14;58.44
5380;BME280;2713;42.680;23.310;2023-05-06T05:31:11;95273.66;;;17.06;58.52
5380;BME280;2713;42.680;23.310;2023-05-06T05:33:38;95280.88;;;16.86;59.08
5380;BME280;2713;42.680;23.310;2023-05-06T05:36:09;95272.16;;;16.61;60.03
5380;BME280;2713;42.680;23.310;2023-05-06T05:38:37;95274.41;;;16.44;60.14
5380;BME280;2713;42.680;23.310;2023-05-06T05:41:04;95273.63;;;16.44;60.55
5380;BME280;2713;42.680;23.310;2023-05-06T05:43:32;95277.75;;;16.20;60.85
5380;BME280;2713;42.680;23.310;2023-05-06T05:46:00;95277.91;;;15.81;61.58
5380;BME280;2713;42.680;23.310;2023-05-06T05:48:30;95273.50;;;15.75;62.19
5380;BME280;2713;42.680;23.310;2023-05-06T05:51:00;95270.69;;;15.63;62.87
5380;BME280;2713;42.680;23.310;2023-05-06T05:53:29;95277.34;;;15.46;63.25
5380;BME280;2713;42.680;23.310;2023-05-06T05:55:55;95275.34;;;15.48;63.23
5380;BME280;2713;42.680;23.310;2023-05-06T05:58:23;95279.16;;;15.52;63.26
5380;BME280;2713;42.680;23.310;2023-05-06T06:00:50;95279.97;;;15.52;63.24
5380;BME280;2713;42.680;23.310;2023-05-06T06:03:18;95277.16;;;15.54;63.41
5380;BME280;2713;42.680;23.310;2023-05-06T06:05:45;95281.00;;;15.58;63.23
5380;BME280;2713;42.680;23.310;2023-05-06T06:08:16;95285.22;;;15.39;63.94
5380;BME280;2713;42.680;23.310;2023-05-06T06:10:44;95290.06;;;15.36;63.93
5380;BME280;2713;42.680;23.310;2023-05-06T06:13:16;95292.69;;;15.29;64.37
5380;BME280;2713;42.680;23.310;2023-05-06T06:15:43;95299.13;;;15.40;64.67
5380;BME280;2713;42.680;23.310;2023-05-06T06:18:11;95283.03;;;15.16;65.66
5380;BME280;2713;42.680;23.310;2023-05-06T06:20:38;95292.06;;;15.34;65.72
5380;BME280;2713;42.680;23.310;2023-05-06T06:23:05;95292.50;;;15.50;65.22
5380;BME280;2713;42.680;23.310;2023-05-06T06:25:33;95293.69;;;15.28;65.07
5380;BME280;2713;42.680;23.310;2023-05-06T06:28:01;95292.06;;;15.07;65.61
5380;BME280;2713;42.680;23.310;2023-05-06T06:30:28;95289.66;;;15.19;65.45
5380;BME280;2713;42.680;23.310;2023-05-06T06:32:54;95283.63;;;15.12;65.42
5380;BME280;2713;42.680;23.310;2023-05-06T06:35:23;95274.75;;;15.26;65.67
5380;BME280;2713;42.680;23.310;2023-05-06T06:37:51;95285.22;;;15.26;65.67
5380;BME280;2713;42.680;23.310;2023-05-06T06:40:18;95288.66;;;15.33;65.26
5380;BME280;2713;42.680;23.310;2023-05-06T06:42:45;95291.28;;;15.27;65.26
5380;BME280;2713;42.680;23.310;2023-05-06T06:45:32;95296.91;;;15.37;64.93
5380;BME280;2713;42.680;23.310;2023-05-06T06:47:58;95295.72;;;15.00;66.16
5380;BME280;2713;42.680;23.310;2023-05-06T06:50:25;95288.44;;;14.76;66.61
5380;BME280;2713;42.680;23.310;2023-05-06T06:52:52;95292.22;;;14.66;67.91
5380;BME280;2713;42.680;23.310;2023-05-06T06:55:19;95289.44;;;14.75;68.17
5380;BME280;2713;42.680;23.310;2023-05-06T06:57:46;95294.25;;;14.78;67.69
5380;BME280;2713;42.680;23.310;2023-05-06T07:00:14;95296.88;;;15.04;68.02
5380;BME280;2713;42.680;23.310;2023-05-06T07:02:42;95299.91;;;15.20;66.86
5380;BME280;2713;42.680;23.310;2023-05-06T07:05:11;95303.97;;;15.16;66.66
5380;BME280;2713;42.680;23.310;2023-05-06T07:07:38;95298.09;;;15.21;66.59
5380;BME280;2713;42.680;23.310;2023-05-06T07:10:06;95297.09;;;15.42;65.77
5380;BME280;2713;42.680;23.310;2023-05-06T07:12:33;95302.97;;;15.37;65.84
5380;BME280;2713;42.680;23.310;2023-05-06T07:15:00;95315.03;;;15.45;65.40
5380;BME280;2713;42.680;23.310;2023-05-06T07:17:29;95282.00;;;15.50;64.68
5380;BME280;2713;42.680;23.310;2023-05-06T07:19:57;95311.00;;;15.82;64.76
5380;BME280;2713;42.680;23.310;2023-05-06T07:22:24;95298.53;;;15.57;65.45
5380;BME280;2713;42.680;23.310;2023-05-06T07:24:51;95309.38;;;15.74;65.13
5380;BME280;2713;42.680;23.310;2023-05-06T07:27:18;95310.22;;;15.61;65.08
5380;BME280;2713;42.680;23.310;2023-05-06T07:29:45;95316.63;;;15.72;65.33
5380;BME280;2713;42.680;23.310;2023-05-06T07:32:12;95321.44;;;15.95;64.56
5380;BME280;2713;42.680;23.310;2023-05-06T07:34:38;95320.50;;;16.27;64.05
5380;BME280;2713;42.680;23.310;2023-05-06T07:37:07;95318.25;;;16.37;63.06
5380;BME280;2713;42.680;23.310;2023-05-06T07:39:33;95313.63;;;16.39;62.92
5380;BME280;2713;42.680;23.310;2023-05-06T07:42:00;95312.31;;;16.61;62.71
5380;BME280;2713;42.680;23.310;2023-05-06T07:44:27;95305.88;;;16.89;62.13
5380;BME280;2713;42.680;23.310;2023-05-06T07:46:54;95305.88;;;17.20;60.78
5380;BME280;2713;42.680;23.310;2023-05-06T07:49:21;95311.34;;;17.43;60.80
5380;BME280;2713;42.680;23.310;2023-05-06T07:51:48;95312.09;;;17.75;59.37
5380;BME280;2713;42.680;23.310;2023-05-06T07:54:17;95305.69;;;17.89;59.24
5380;BME280;2713;42.680;23.310;2023-05-06T07:56:43;95311.75;;;18.26;59.24
5380;BME280;2713;42.680;23.310;2023-05-06T07:59:10;95311.03;;;18.37;57.51
5380;BME280;2713;42.680;23.310;2023-05-06T08:01:37;95312.47;;;18.33;57.34
5380;BME280;2713;42.680;23.310;2023-05-06T08:04:05;95304.16;;;18.54;56.32
5380;BME280;2713;42.680;23.310;2023-05-06T08:06:31;95311.53;;;18.46;57.42
5380;BME280;2713;42.680;23.310;2023-05-06T08:08:58;95305.38;;;19.00;56.00
5380;BME280;2713;42.680;23.310;2023-05-06T08:11:27;95303.44;;;19.07;56.09
5380;BME280;2713;42.680;23.310;2023-05-06T08:13:53;95311.34;;;19.07;54.92
5380;BME280;2713;42.680;23.310;2023-05-06T08:16:20;95301.28;;;19.27;55.30
5380;BME280;2713;42.680;23.310;2023-05-06T08:18:47;95306.44;;;19.22;55.44
5380;BME280;2713;42.680;23.310;2023-05-06T08:21:14;95310.28;;;19.61;52.92
5380;BME280;2713;42.680;23.310;2023-05-06T08:23:41;95313.72;;;19.73;53.18
5380;BME280;2713;42.680;23.310;2023-05-06T08:26:07;95310.50;;;20.06;52.93
5380;BME280;2713;42.680;23.310;2023-05-06T08:28:36;95313.25;;;20.34;51.92
5380;BME280;2713;42.680;23.310;2023-05-06T08:31:03;95317.53;;;20.52;51.05
5380;BME280;2713;42.680;23.310;2023-05-06T08:33:30;95318.44;;;20.86;50.14
5380;BME280;2713;42.680;23.310;2023-05-06T08:35:57;95301.19;;;20.95;48.82
5380;BME280;2713;42.680;23.310;2023-05-06T08:38:24;95309.78;;;20.73;49.65
5380;BME280;2713;42.680;23.310;2023-05-06T08:40:52;95310.94;;;20.66;49.45
5380;BME280;2713;42.680;23.310;2023-05-06T08:43:20;95312.28;;;20.80;49.53
5380;BME280;2713;42.680;23.310;2023-05-06T08:45:49;95313.06;;;21.09;49.06
5380;BME280;2713;42.680;23.310;2023-05-06T08:48:16;95310.31;;;21.32;48.62
5380;BME280;2713;42.680;23.310;2023-05-06T08:50:43;95309.78;;;21.63;48.30
5380;BME280;2713;42.680;23.310;2023-05-06T08:53:11;95307.19;;;21.68;47.54
5380;BME280;2713;42.680;23.310;2023-05-06T08:55:39;95299.88;;;21.75;46.91
5380;BME280;2713;42.680;23.310;2023-05-06T08:58:07;95303.25;;;21.54;46.96
5380;BME280;2713;42.680;23.310;2023-05-06T09:00:34;95298.22;;;21.69;46.59
5380;BME280;2713;42.680;23.310;2023-05-06T09:03:02;95301.25;;;21.61;45.93
5380;BME280;2713;42.680;23.310;2023-05-06T09:05:30;95290.97;;;21.82;45.48
5380;BME280;2713;42.680;23.310;2023-05-06T09:07:57;95290.91;;;21.10;46.83
5380;BME280;2713;42.680;23.310;2023-05-06T09:10:29;95286.28;;;21.50;46.42
5380;BME280;2713;42.680;23.310;2023-05-06T09:12:56;95274.81;;;20.55;48.05
5380;BME280;2713;42.680;23.310;2023-05-06T09:15:23;95274.41;;;20.74;47.90
5380;BME280;2713;42.680;23.310;2023-05-06T09:17:52;95273.16;;;20.65;47.82
5380;BME280;2713;42.680;23.310;2023-05-06T09:20:21;95275.09;;;20.42;48.54
5380;BME280;2713;42.680;23.310;2023-05-06T09:22:48;95266.06;;;20.83;48.26
5380;BME280;2713;42.680;23.310;2023-05-06T09:25:15;95265.91;;;20.72;47.86
5380;BME280;2713;42.680;23.310;2023-05-06T09:27:42;95274.03;;;20.54;47.66
5380;BME280;2713;42.680;23.310;2023-05-06T09:30:10;95259.59;;;20.73;47.95
5380;BME280;2713;42.680;23.310;2023-05-06T09:32:37;95254.25;;;21.30;47.11
5380;BME280;2713;42.680;23.310;2023-05-06T09:35:05;95249.72;;;22.02;44.99
5380;BME280;2713;42.680;23.310;2023-05-06T09:37:34;95252.50;;;21.74;45.68
5380;BME280;2713;42.680;23.310;2023-05-06T09:40:01;95246.06;;;21.87;45.28
5380;BME280;2713;42.680;23.310;2023-05-06T09:42:29;95242.97;;;21.73;46.83
5380;BME280;2713;42.680;23.310;2023-05-06T09:44:57;95248.28;;;21.56;45.20
5380;BME280;2713;42.680;23.310;2023-05-06T09:47:26;95232.47;;;21.61;45.35
5380;BME280;2713;42.680;23.310;2023-05-06T09:49:55;95245.06;;;21.71;45.01
5380;BME280;2713;42.680;23.310;2023-05-06T09:52:25;95244.22;;;20.70;47.39
5380;BME280;2713;42.680;23.310;2023-05-06T09:54:54;95240.06;;;20.74;47.76
5380;BME280;2713;42.680;23.310;2023-05-06T09:57:21;95233.09;;;20.68;47.41
5380;BME280;2713;42.680;23.310;2023-05-06T09:59:49;95221.47;;;20.69;48.26
5380;BME280;2713;42.680;23.310;2023-05-06T10:02:17;95227.88;;;20.73;47.95
5380;BME280;2713;42.680;23.310;2023-05-06T10:04:44;95232.13;;;20.74;48.07
5380;BME280;2713;42.680;23.310;2023-05-06T10:07:14;95235.06;;;20.33;47.96
5380;BME280;2713;42.680;23.310;2023-05-06T10:09:42;95237.16;;;20.19;48.76
5380;BME280;2713;42.680;23.310;2023-05-06T10:12:11;95235.78;;;19.65;49.81
5380;BME280;2713;42.680;23.310;2023-05-06T10:14:39;95231.31;;;19.54;50.28
5380;BME280;2713;42.680;23.310;2023-05-06T10:17:07;95225.91;;;19.38;50.83
5380;BME280;2713;42.680;23.310;2023-05-06T10:19:35;95233.63;;;18.98;51.59
5380;BME280;2713;42.680;23.310;2023-05-06T10:22:09;95228.03;;;19.06;51.98
5380;BME280;2713;42.680;23.310;2023-05-06T10:24:43;95221.81;;;18.89;51.53
5380;BME280;2713;42.680;23.310;2023-05-06T10:27:14;95232.88;;;18.56;52.58
5380;BME280;2713;42.680;23.310;2023-05-06T10:29:44;95230.34;;;18.43;52.77
5380;BME280;2713;42.680;23.310;2023-05-06T10:32:11;95227.59;;;18.56;53.43
5380;BME280;2713;42.680;23.310;2023-05-06T10:34:43;95229.28;;;18.80;52.42
5380;BME280;2713;42.680;23.310;2023-05-06T10:37:13;95220.91;;;18.95;52.05
5380;BME280;2713;42.680;23.310;2023-05-06T10:39:42;95234.09;;;19.18;52.15
5380;BME280;2713;42.680;23.310;2023-05-06T10:42:09;95219.81;;;19.49;51.35
5380;BME280;2713;42.680;23.310;2023-05-06T10:44:56;95219.56;;;19.73;50.18
5380;BME280;2713;42.680;23.310;2023-05-06T10:47:23;95206.56;;;19.95;50.25
5380;BME280;2713;42.680;23.310;2023-05-06T10:50:18;95221.53;;;20.30;49.58
5380;BME280;2713;42.680;23.310;2023-05-06T10:52:48;95217.81;;;20.42;48.93
5380;BME280;2713;42.680;23.310;2023-05-06T10:55:27;95223.63;;;20.04;47.78
5380;BME280;2713;42.680;23.310;2023-05-06T10:57:54;95203.50;;;20.27;47.81
5380;BME280;2713;42.680;23.310;2023-05-06T11:00:23;95214.78;;;20.50;47.24
5380;BME280;2713;42.680;23.310;2023-05-06T11:02:55;95221.25;;;20.43;47.67
5380;BME280;2713;42.680;23.310;2023-05-06T11:05:24;95211.50;;;20.43;48.36
5380;BME280;2713;42.680;23.310;2023-05-06T11:07:52;95217.28;;;20.29;45.42
5380;BME280;2713;42.680;23.310;2023-05-06T11:10:34;95212.53;;;20.02;44.75
5380;BME280;2713;42.680;23.310;2023-05-06T11:13:23;95217.25;;;20.40;45.08
5380;BME280;2713;42.680;23.310;2023-05-06T11:15:54;95210.38;;;20.28;43.68
5380;BME280;2713;42.680;23.310;2023-05-06T11:18:40;95206.31;;;20.08;44.62
5380;BME280;2713;42.680;23.310;2023-05-06T11:21:37;95209.31;;;20.00;43.92
5380;BME280;2713;42.680;23.310;2023-05-06T11:24:09;95204.44;;;19.81;44.67
5380;BME280;2713;42.680;23.310;2023-05-06T11:26:36;95206.72;;;19.89;42.85
5380;BME280;2713;42.680;23.310;2023-05-06T11:29:05;95213.34;;;20.03;42.91
5380;BME280;2713;42.680;23.310;2023-05-06T11:31:38;95201.34;;;19.72;43.81
5380;BME280;2713;42.680;23.310;2023-05-06T11:34:11;95202.38;;;19.83;44.08
5380;BME280;2713;42.680;23.310;2023-05-06T11:36:48;95210.59;;;19.98;42.84
5380;BME280;2713;42.680;23.310;2023-05-06T11:39:15;95213.63;;;19.78;43.01
5380;BME280;2713;42.680;23.310;2023-05-06T11:41:42;95213.94;;;19.82;43.22
5380;BME280;2713;42.680;23.310;2023-05-06T11:44:08;95217.53;;;19.52;44.59
5380;BME280;2713;42.680;23.310;2023-05-06T11:46:38;95208.94;;;19.68;44.86
5380;BME280;2713;42.680;23.310;2023-05-06T11:49:05;95205.25;;;19.69;44.78
5380;BME280;2713;42.680;23.310;2023-05-06T11:51:32;95212.94;;;19.59;45.11
5380;BME280;2713;42.680;23.310;2023-05-06T11:54:06;95208.72;;;19.47;44.29
5380;BME280;2713;42.680;23.310;2023-05-06T11:56:44;95212.94;;;19.59;43.88
5380;BME280;2713;42.680;23.310;2023-05-06T11:59:11;95193.38;;;19.55;42.82
5380;BME280;2713;42.680;23.310;2023-05-06T12:01:42;95197.50;;;19.51;44.01
5380;BME280;2713;42.680;23.310;2023-05-06T12:04:09;95202.97;;;19.61;44.01
5380;BME280;2713;42.680;23.310;2023-05-06T12:06:37;95192.66;;;19.60;44.02
5380;BME280;2713;42.680;23.310;2023-05-06T12:09:05;95191.88;;;19.99;43.74
5380;BME280;2713;42.680;23.310;2023-05-06T12:11:34;95201.22;;;20.30;43.36
5380;BME280;2713;42.680;23.310;2023-05-06T12:14:02;95182.97;;;20.73;43.28
5380;BME280;2713;42.680;23.310;2023-05-06T12:16:30;95196.81;;;20.36;42.86
5380;BME280;2713;42.680;23.310;2023-05-06T12:18:58;95189.28;;;20.28;43.35
5380;BME280;2713;42.680;23.310;2023-05-06T12:21:25;95177.94;;;20.27;45.33
5380;BME280;2713;42.680;23.310;2023-05-06T12:23:53;95190.03;;;20.40;41.33
5380;BME280;2713;42.680;23.310;2023-05-06T12:26:20;95185.53;;;20.12;41.50
5380;BME280;2713;42.680;23.310;2023-05-06T12:29:04;95185.00;;;19.98;42.00
5380;BME280;2713;42.680;23.310;2023-05-06T12:31:31;95185.75;;;20.10;42.55
5380;BME280;2713;42.680;23.310;2023-05-06T12:33:59;95176.84;;;20.40;42.08
5380;BME280;2713;42.680;23.310;2023-05-06T12:36:26;95180.84;;;20.42;42.07
5380;BME280;2713;42.680;23.310;2023-05-06T12:38:55;95171.28;;;20.69;44.37
5380;BME280;2713;42.680;23.310;2023-05-06T12:41:23;95166.47;;;20.66;45.60
5380;BME280;2713;42.680;23.310;2023-05-06T12:43:50;95186.78;;;20.49;46.34
5380;BME280;2713;42.680;23.310;2023-05-06T12:46:17;95171.50;;;20.51;47.54
5380;BME280;2713;42.680;23.310;2023-05-06T12:48:57;95176.91;;;20.45;45.71
5380;BME280;2713;42.680;23.310;2023-05-06T12:51:25;95169.06;;;20.33;46.11
5380;BME280;2713;42.680;23.310;2023-05-06T12:53:53;95173.63;;;20.38;48.69
5380;BME280;2713;42.680;23.310;2023-05-06T12:56:20;95177.78;;;20.34;47.41
5380;BME280;2713;42.680;23.310;2023-05-06T12:58:58;95175.00;;;20.40;45.75
5380;BME280;2713;42.680;23.310;2023-05-06T13:01:25;95170.13;;;20.49;45.31
5380;BME280;2713;42.680;23.310;2023-05-06T13:03:53;95174.03;;;20.46;44.74
5380;BME280;2713;42.680;23.310;2023-05-06T13:06:20;95175.84;;;20.29;44.62
5380;BME280;2713;42.680;23.310;2023-05-06T13:08:48;95166.69;;;20.20;44.47
5380;BME280;2713;42.680;23.310;2023-05-06T13:11:15;95169.75;;;20.29;45.19
5380;BME280;2713;42.680;23.310;2023-05-06T13:13:42;95163.97;;;20.43;45.83
5380;BME280;2713;42.680;23.310;2023-05-06T13:16:09;95166.50;;;20.38;44.96
5380;BME280;2713;42.680;23.310;2023-05-06T13:18:35;95162.50;;;20.24;44.71